Time;durP1;ratioP1;P1;durP2;ratioP2;P2;SDS_P1;SDS_P2;PMS_P1;PMS_P2;Temp;Humidity;BMP_temperature;BMP_pressure;BME280_temperature;BME280_humidity;BME280_pressure;Samples;Min_cycle;Max_cycle;Signal;HPM_P1;HPM_P2
2022/03/31 00:00:09;;;;;;;5.00;2.60;;;;;;;;;;5113128;28;20105;-83
2022/03/31 00:02:36;;;;;;;4.22;2.13;;;;;;;;;;5094653;28;20079;-85
2022/03/31 00:05:02;;;;;;;5.15;2.60;;;;;;;;;;5094750;28;20063;-83
2022/03/31 00:07:29;;;;;;;4.95;2.20;;;;;;;;;;5094912;28;20125;-83
2022/03/31 00:09:55;;;;;;;4.75;2.33;;;;;;;;;;5122092;27;21114;-84
2022/03/31 00:12:21;;;;;;;4.50;2.38;;;;;;;;;;5113192;28;20087;-82
2022/03/31 00:14:48;;;;;;;4.78;2.22;;;;;;;;;;5108702;27;20060;-82
2022/03/31 00:17:15;;;;;;;4.28;2.13;;;;;;;;;;5110037;27;20052;-86
2022/03/31 00:19:41;;;;;;;4.28;2.20;;;;;;;;;;5094782;28;20082;-84
2022/03/31 00:22:20;;;;;;;3.88;1.95;;;;;;;;;;5112784;28;20052;-83
2022/03/31 00:24:46;;;;;;;4.57;1.92;;;;;;;;;;5095942;28;20052;-83
2022/03/31 00:27:12;;;;;;;4.45;1.85;;;;;;;;;;5114027;28;20074;-82
2022/03/31 00:29:39;;;;;;;5.53;1.60;;;;;;;;;;5094021;28;20056;-82
2022/03/31 00:32:05;;;;;;;3.80;1.92;;;;;;;;;;5114412;28;20048;-84
2022/03/31 00:34:32;;;;;;;5.32;1.65;;;;;;;;;;5114495;28;20102;-81
2022/03/31 00:36:58;;;;;;;3.58;1.60;;;;;;;;;;5114738;28;20114;-81
2022/03/31 00:39:34;;;;;;;4.28;1.50;;;;;;;;;;5115457;28;20052;-80
2022/03/31 00:42:02;;;;;;;3.60;1.40;;;;;;;;;;5113219;27;20733;-82
2022/03/31 00:44:29;;;;;;;3.47;1.50;;;;;;;;;;5115495;27;20056;-82
2022/03/31 00:46:56;;;;;;;3.63;1.30;;;;;;;;;;5100475;28;20060;-82
2022/03/31 00:49:23;;;;;;;4.97;1.63;;;;;;;;;;5120732;28;20129;-84
2022/03/31 00:51:52;;;;;;;3.20;1.42;;;;;;;;;;5120695;28;20040;-81
2022/03/31 00:54:20;;;;;;;3.25;1.30;;;;;;;;;;5118305;28;20118;-84
2022/03/31 00:56:47;;;;;;;3.33;1.38;;;;;;;;;;5119870;28;20056;-81
2022/03/31 00:59:13;;;;;;;3.20;1.30;;;;;;;;;;5102165;28;20056;-81
2022/03/31 01:01:40;;;;;;;4.30;1.40;;;;;;;;;;5130083;28;20044;-83
2022/03/31 01:04:07;;;;;;;3.20;1.40;;;;;;;;;;5112627;28;20058;-82
2022/03/31 01:06:34;;;;;;;3.25;1.52;;;;;;;;;;5129886;28;20098;-82
2022/03/31 01:09:01;;;;;;;3.83;1.40;;;;;;;;;;5099487;28;20586;-82
2022/03/31 01:11:29;;;;;;;3.78;1.50;;;;;;;;;;5093330;28;20056;-82
2022/03/31 01:13:55;;;;;;;4.05;1.38;;;;;;;;;;5103233;28;20048;-82
2022/03/31 01:16:22;;;;;;;3.90;1.40;;;;;;;;;;5103069;28;20110;-82
2022/03/31 01:18:51;;;;;;;3.08;1.27;;;;;;;;;;5118992;28;20044;-82
2022/03/31 01:21:18;;;;;;;3.45;1.25;;;;;;;;;;5106462;27;20049;-82
2022/03/31 01:23:45;;;;;;;3.05;1.20;;;;;;;;;;5099272;28;20072;-82
2022/03/31 01:26:12;;;;;;;2.90;1.20;;;;;;;;;;5098132;28;20059;-82
2022/03/31 01:28:43;;;;;;;4.15;1.23;;;;;;;;;;5099079;28;20091;-81
2022/03/31 01:31:09;;;;;;;;;;;;;;;;;;5098669;28;20048;-82
2022/03/31 01:33:37;;;;;;;3.88;0.80;;;;;;;;;;5097749;28;45801;-82
2022/03/31 01:36:04;;;;;;;3.25;1.10;;;;;;;;;;5118081;28;20122;-82
2022/03/31 01:38:30;;;;;;;2.35;1.00;;;;;;;;;;5118330;28;20117;-81
2022/03/31 01:40:57;;;;;;;3.10;1.00;;;;;;;;;;5119894;27;20059;-82
2022/03/31 01:43:23;;;;;;;2.70;1.10;;;;;;;;;;5118320;28;20074;-81
2022/03/31 01:45:52;;;;;;;2.60;0.90;;;;;;;;;;5117523;28;20870;-82
2022/03/31 01:48:19;;;;;;;2.50;0.80;;;;;;;;;;5100036;28;20818;-81
2022/03/31 01:50:45;;;;;;;2.85;0.95;;;;;;;;;;5101225;28;20094;-82
2022/03/31 01:53:18;;;;;;;3.17;1.15;;;;;;;;;;5103332;28;20043;-82
2022/03/31 01:55:45;;;;;;;2.60;1.00;;;;;;;;;;5101433;28;20048;-81
2022/03/31 01:58:11;;;;;;;3.13;1.20;;;;;;;;;;5121583;28;20078;-81
2022/03/31 02:00:38;;;;;;;2.85;1.15;;;;;;;;;;5114247;28;20971;-81
2022/03/31 02:03:05;;;;;;;3.65;1.42;;;;;;;;;;5114267;28;20044;-81
2022/03/31 02:05:31;;;;;;;3.08;1.50;;;;;;;;;;5120170;28;20055;-81
2022/03/31 02:07:58;;;;;;;3.30;1.48;;;;;;;;;;5119403;28;20059;-82
2022/03/31 02:10:27;;;;;;;3.33;1.45;;;;;;;;;;5100737;28;20056;-82
2022/03/31 02:12:54;;;;;;;4.03;1.60;;;;;;;;;;5101880;28;20052;-81
2022/03/31 02:15:23;;;;;;;3.50;1.33;;;;;;;;;;5110019;28;20521;-81
2022/03/31 02:17:49;;;;;;;3.90;1.40;;;;;;;;;;5099383;28;20044;-81
2022/03/31 02:20:16;;;;;;;4.57;1.65;;;;;;;;;;5111220;28;20107;-81
2022/03/31 02:22:42;;;;;;;3.45;1.40;;;;;;;;;;5094706;28;20057;-80
2022/03/31 02:25:09;;;;;;;2.95;1.25;;;;;;;;;;5092344;28;20075;-82
2022/03/31 02:27:36;;;;;;;4.07;1.50;;;;;;;;;;5117454;27;20051;-81
2022/03/31 02:30:04;;;;;;;3.67;1.42;;;;;;;;;;5115151;28;20117;-81
2022/03/31 02:32:30;;;;;;;3.92;1.40;;;;;;;;;;5096754;28;20137;-81
2022/03/31 02:34:57;;;;;;;3.25;1.50;;;;;;;;;;5097832;28;20044;-80
2022/03/31 02:37:24;;;;;;;3.40;1.40;;;;;;;;;;5115487;28;20052;-81
2022/03/31 02:39:51;;;;;;;3.35;1.33;;;;;;;;;;5094326;28;20048;-82
2022/03/31 02:42:17;;;;;;;4.55;1.20;;;;;;;;;;5077520;28;20067;-81
2022/03/31 02:44:44;;;;;;;3.50;1.33;;;;;;;;;;5109989;28;20098;-80
2022/03/31 02:47:11;;;;;;;4.07;1.40;;;;;;;;;;5116376;28;20145;-81
2022/03/31 02:49:38;;;;;;;3.40;1.40;;;;;;;;;;5095673;28;20066;-81
2022/03/31 02:52:05;;;;;;;3.75;1.50;;;;;;;;;;5095263;28;20101;-81
2022/03/31 02:57:16;;;;;;;4.57;1.60;;;;;;;;;;5114145;28;20048;-80
2022/03/31 02:59:43;;;;;;;3.80;1.30;;;;;;;;;;5114509;28;20036;-81
2022/03/31 03:02:09;;;;;;;4.00;1.30;;;;;;;;;;5096067;28;20052;-81
2022/03/31 03:04:35;;;;;;;3.67;1.52;;;;;;;;;;5096030;28;20051;-80
2022/03/31 03:07:02;;;;;;;3.97;1.48;;;;;;;;;;5111873;28;20146;-80
2022/03/31 03:09:28;;;;;;;3.42;1.63;;;;;;;;;;5096447;28;20052;-81
2022/03/31 03:11:55;;;;;;;4.80;1.77;;;;;;;;;;5095426;28;20075;-80
2022/03/31 03:14:22;;;;;;;3.75;1.65;;;;;;;;;;5083572;28;20040;-81
2022/03/31 03:16:49;;;;;;;3.92;1.63;;;;;;;;;;5095149;28;20056;-80
2022/03/31 03:19:15;;;;;;;5.28;1.80;;;;;;;;;;5089965;28;20526;-79
2022/03/31 03:21:41;;;;;;;3.55;1.50;;;;;;;;;;5091381;28;20083;-80
2022/03/31 03:24:10;;;;;;;3.58;1.35;;;;;;;;;;5093665;28;20083;-81
2022/03/31 03:26:37;;;;;;;3.58;1.58;;;;;;;;;;5102410;28;20043;-79
2022/03/31 03:29:03;;;;;;;3.53;1.48;;;;;;;;;;5104702;28;20048;-80
2022/03/31 03:31:30;;;;;;;3.60;1.60;;;;;;;;;;5092489;27;20064;-80
2022/03/31 03:33:56;;;;;;;4.07;1.42;;;;;;;;;;5108279;27;20643;-79
2022/03/31 03:36:22;;;;;;;3.65;1.48;;;;;;;;;;5112946;28;20052;-81
2022/03/31 03:38:49;;;;;;;3.92;1.65;;;;;;;;;;5116470;27;20033;-80
2022/03/31 03:41:15;;;;;;;3.30;1.35;;;;;;;;;;5091938;28;20122;-78
2022/03/31 03:43:42;;;;;;;3.40;1.42;;;;;;;;;;5099735;28;20894;-80
2022/03/31 03:46:09;;;;;;;3.88;1.50;;;;;;;;;;5113219;28;20051;-80
2022/03/31 03:48:35;;;;;;;3.80;1.50;;;;;;;;;;5094545;28;20105;-79
2022/03/31 03:51:02;;;;;;;4.15;1.70;;;;;;;;;;5111829;28;20129;-80
2022/03/31 03:53:29;;;;;;;4.45;1.50;;;;;;;;;;5111165;28;20511;-79
2022/03/31 03:55:55;;;;;;;4.70;1.42;;;;;;;;;;5091697;28;20052;-77
2022/03/31 03:58:22;;;;;;;4.85;1.85;;;;;;;;;;5109505;28;20105;-81
2022/03/31 04:00:48;;;;;;;4.00;1.73;;;;;;;;;;5109308;27;20070;-78
2022/03/31 04:03:15;;;;;;;4.35;2.00;;;;;;;;;;5108966;28;20056;-79
2022/03/31 04:05:41;;;;;;;4.82;2.05;;;;;;;;;;5107450;28;20052;-79
2022/03/31 04:08:08;;;;;;;4.20;2.03;;;;;;;;;;5107829;28;20097;-79
2022/03/31 04:10:35;;;;;;;5.72;2.40;;;;;;;;;;5107459;28;20060;-79
2022/03/31 04:13:02;;;;;;;4.72;1.80;;;;;;;;;;5088670;28;20052;-79
2022/03/31 04:15:28;;;;;;;4.82;2.17;;;;;;;;;;5107969;28;20056;-79
2022/03/31 04:17:55;;;;;;;6.30;2.60;;;;;;;;;;5081076;28;20056;-79
2022/03/31 04:20:21;;;;;;;5.25;2.40;;;;;;;;;;5088917;28;20503;-79
2022/03/31 04:22:47;;;;;;;5.13;2.15;;;;;;;;;;5107625;28;20190;-79
2022/03/31 04:25:14;;;;;;;4.38;2.10;;;;;;;;;;5106293;28;20088;-77
2022/03/31 04:27:41;;;;;;;4.85;1.95;;;;;;;;;;5107757;28;20060;-79
2022/03/31 04:30:09;;;;;;;4.93;2.50;;;;;;;;;;5106727;28;20833;-80
2022/03/31 04:32:37;;;;;;;7.32;2.53;;;;;;;;;;5088620;28;20058;-79
2022/03/31 04:35:04;;;;;;;4.65;2.30;;;;;;;;;;5106509;28;20056;-80
2022/03/31 04:37:32;;;;;;;5.93;2.63;;;;;;;;;;5090706;27;20503;-80
2022/03/31 04:39:58;;;;;;;5.20;2.03;;;;;;;;;;5100355;27;20099;-79
2022/03/31 04:42:25;;;;;;;5.50;2.72;;;;;;;;;;5092504;28;20109;-80
2022/03/31 04:44:51;;;;;;;5.97;2.53;;;;;;;;;;5091947;28;20052;-80
2022/03/31 04:47:17;;;;;;;6.05;2.60;;;;;;;;;;5109821;28;20052;-81
2022/03/31 04:49:44;;;;;;;4.47;2.35;;;;;;;;;;5092556;28;20094;-79
2022/03/31 04:52:11;;;;;;;8.07;2.58;;;;;;;;;;5110784;28;20041;-82
2022/03/31 04:54:43;;;;;;;4.20;1.73;;;;;;;;;;5108843;28;20391;-79
2022/03/31 04:57:14;;;;;;;7.30;2.20;;;;;;;;;;5112514;27;20052;-78
2022/03/31 04:59:41;;;;;;;4.45;1.85;;;;;;;;;;5088695;28;20213;-80
2022/03/31 05:02:08;;;;;;;6.40;2.10;;;;;;;;;;5107426;28;20098;-79
2022/03/31 05:04:35;;;;;;;6.78;2.15;;;;;;;;;;5107861;28;20091;-82
2022/03/31 05:07:01;;;;;;;5.35;2.00;;;;;;;;;;5089363;28;20467;-78
2022/03/31 05:09:28;;;;;;;3.90;1.95;;;;;;;;;;5107171;28;20060;-80
2022/03/31 05:11:55;;;;;;;6.97;1.90;;;;;;;;;;5100812;28;20055;-80
2022/03/31 05:14:21;;;;;;;8.85;2.00;;;;;;;;;;5091279;28;20055;-80
2022/03/31 05:16:48;;;;;;;5.03;2.20;;;;;;;;;;5107147;28;20056;-79
2022/03/31 05:19:14;;;;;;;5.55;2.10;;;;;;;;;;5086345;28;20045;-79
2022/03/31 05:21:40;;;;;;;4.47;1.80;;;;;;;;;;5099462;28;20058;-80
2022/03/31 05:24:07;;;;;;;4.32;2.00;;;;;;;;;;5108534;28;20129;-79
2022/03/31 05:26:34;;;;;;;5.97;2.40;;;;;;;;;;5090788;28;20080;-78
2022/03/31 05:29:00;;;;;;;6.72;2.33;;;;;;;;;;5108808;28;20056;-81
2022/03/31 05:31:26;;;;;;;6.03;2.85;;;;;;;;;;5111548;28;20122;-81
2022/03/31 05:33:53;;;;;;;7.13;2.42;;;;;;;;;;5111807;28;20074;-80
2022/03/31 05:36:19;;;;;;;6.68;2.88;;;;;;;;;;5112171;27;20064;-79
2022/03/31 05:38:45;;;;;;;7.50;3.03;;;;;;;;;;5112179;28;21101;-80
2022/03/31 05:41:12;;;;;;;5.75;2.83;;;;;;;;;;5091329;28;20053;-79
2022/03/31 05:43:38;;;;;;;9.20;3.10;;;;;;;;;;5092300;27;20822;-79
2022/03/31 05:46:05;;;;;;;7.22;3.00;;;;;;;;;;5092797;28;20113;-81
2022/03/31 05:48:31;;;;;;;6.93;2.97;;;;;;;;;;5127627;27;20058;-81
2022/03/31 05:50:58;;;;;;;6.82;2.90;;;;;;;;;;5118526;27;20048;-81
2022/03/31 05:53:24;;;;;;;5.88;2.50;;;;;;;;;;5090868;28;20052;-79
2022/03/31 05:55:51;;;;;;;6.10;2.70;;;;;;;;;;5092672;28;20220;-81
2022/03/31 05:58:17;;;;;;;7.38;2.90;;;;;;;;;;5110694;28;20106;-79
2022/03/31 06:00:43;;;;;;;5.55;2.35;;;;;;;;;;5110550;28;20060;-79
2022/03/31 06:03:10;;;;;;;10.30;2.92;;;;;;;;;;5111663;28;20113;-80
2022/03/31 06:05:36;;;;;;;8.80;2.88;;;;;;;;;;5092621;28;20135;-81
2022/03/31 06:08:03;;;;;;;7.47;2.60;;;;;;;;;;5090007;28;20060;-80
2022/03/31 06:10:29;;;;;;;6.28;2.65;;;;;;;;;;5110239;28;20052;-79
2022/03/31 06:12:56;;;;;;;6.38;2.70;;;;;;;;;;5109770;28;20086;-80
2022/03/31 06:15:22;;;;;;;5.70;2.75;;;;;;;;;;5106785;28;20075;-79
2022/03/31 06:17:49;;;;;;;8.10;2.80;;;;;;;;;;5109834;28;20129;-82
2022/03/31 06:20:15;;;;;;;6.40;2.72;;;;;;;;;;5109401;28;20059;-79
2022/03/31 06:22:42;;;;;;;4.32;2.20;;;;;;;;;;5093925;28;20052;-80
2022/03/31 06:25:11;;;;;;;7.68;2.47;;;;;;;;;;5098203;28;20048;-81
2022/03/31 06:27:38;;;;;;;10.73;2.72;;;;;;;;;;5111037;28;20105;-81
2022/03/31 06:30:05;;;;;;;6.53;2.60;;;;;;;;;;5109939;28;20469;-79
2022/03/31 06:32:31;;;;;;;6.28;2.78;;;;;;;;;;5109608;28;21346;-80
2022/03/31 06:34:59;;;;;;;5.15;2.10;;;;;;;;;;5111195;28;20117;-84
2022/03/31 06:37:26;;;;;;;8.63;3.20;;;;;;;;;;5109410;28;20072;-80
2022/03/31 06:39:53;;;;;;;7.35;2.60;;;;;;;;;;5118349;27;20052;-79
2022/03/31 06:42:19;;;;;;;9.32;2.60;;;;;;;;;;5089998;28;20059;-79
2022/03/31 06:44:45;;;;;;;6.60;2.58;;;;;;;;;;5109839;28;20082;-78
2022/03/31 06:47:12;;;;;;;6.05;2.80;;;;;;;;;;5109282;28;20055;-79
2022/03/31 06:49:38;;;;;;;9.45;3.30;;;;;;;;;;5107560;27;20053;-78
2022/03/31 06:52:05;;;;;;;8.88;2.50;;;;;;;;;;5106167;27;20573;-77
2022/03/31 06:54:31;;;;;;;6.05;2.85;;;;;;;;;;5093814;28;20056;-80
2022/03/31 06:56:58;;;;;;;9.52;2.80;;;;;;;;;;5106514;28;20059;-78
2022/03/31 06:59:24;;;;;;;12.13;2.90;;;;;;;;;;5103218;28;20567;-78
2022/03/31 07:01:51;;;;;;;8.35;2.85;;;;;;;;;;5090414;28;20056;-78
2022/03/31 07:04:17;;;;;;;6.60;2.47;;;;;;;;;;5107744;28;20131;-79
2022/03/31 07:06:44;;;;;;;8.10;2.67;;;;;;;;;;5089860;28;20086;-77
2022/03/31 07:09:10;;;;;;;13.25;2.90;;;;;;;;;;5108016;28;20052;-77
2022/03/31 07:11:37;;;;;;;6.97;2.60;;;;;;;;;;5108266;28;20052;-78
2022/03/31 07:14:05;;;;;;;9.77;2.85;;;;;;;;;;5105900;28;20055;-78
2022/03/31 07:16:32;;;;;;;7.53;2.60;;;;;;;;;;5107471;28;20078;-78
2022/03/31 07:19:01;;;;;;;6.43;2.60;;;;;;;;;;5089124;28;20489;-78
2022/03/31 07:21:31;;;;;;;9.23;2.80;;;;;;;;;;5108593;28;20092;-78
2022/03/31 07:23:57;;;;;;;8.05;2.63;;;;;;;;;;5089833;28;20101;-79
2022/03/31 07:26:24;;;;;;;4.93;2.53;;;;;;;;;;5105825;28;20060;-77
2022/03/31 07:28:51;;;;;;;8.43;3.17;;;;;;;;;;5087289;28;20064;-79
2022/03/31 07:31:18;;;;;;;7.68;2.65;;;;;;;;;;5089685;28;20052;-79
2022/03/31 07:33:45;;;;;;;7.47;2.55;;;;;;;;;;5101647;28;20764;-79
2022/03/31 07:36:12;;;;;;;7.63;2.72;;;;;;;;;;5106051;28;20056;-78
2022/03/31 07:38:39;;;;;;;6.40;2.28;;;;;;;;;;5106084;27;20052;-78
2022/03/31 07:41:06;;;;;;;8.25;2.72;;;;;;;;;;5107116;28;20051;-78
2022/03/31 07:43:32;;;;;;;6.72;3.20;;;;;;;;;;5088590;28;20048;-78
2022/03/31 07:45:59;;;;;;;6.07;3.00;;;;;;;;;;5073645;28;20052;-79
2022/03/31 07:48:25;;;;;;;7.70;2.97;;;;;;;;;;5089521;27;20083;-77
2022/03/31 07:50:55;;;;;;;6.97;3.20;;;;;;;;;;5103025;28;20048;-77
2022/03/31 07:53:22;;;;;;;6.05;2.63;;;;;;;;;;5106988;28;20565;-77
2022/03/31 07:55:49;;;;;;;6.93;3.28;;;;;;;;;;5102641;28;20083;-77
2022/03/31 07:58:15;;;;;;;9.05;3.15;;;;;;;;;;5109770;27;20537;-77
2022/03/31 08:00:42;;;;;;;7.57;3.35;;;;;;;;;;5105756;28;20056;-77
2022/03/31 08:03:09;;;;;;;9.38;3.17;;;;;;;;;;5105197;27;20505;-77
2022/03/31 08:05:38;;;;;;;9.02;3.22;;;;;;;;;;5106948;28;20059;-77
2022/03/31 08:08:04;;;;;;;7.63;3.40;;;;;;;;;;5106634;28;20051;-77
2022/03/31 08:10:31;;;;;;;11.25;3.55;;;;;;;;;;5102733;27;20133;-77
2022/03/31 08:12:57;;;;;;;7.78;3.70;;;;;;;;;;5099189;28;20317;-77
2022/03/31 08:15:24;;;;;;;6.60;3.53;;;;;;;;;;5106964;28;20529;-78
2022/03/31 08:17:51;;;;;;;8.43;3.33;;;;;;;;;;5107994;28;20062;-78
2022/03/31 08:20:18;;;;;;;6.38;3.05;;;;;;;;;;5107868;28;20110;-77
2022/03/31 08:22:45;;;;;;;7.22;3.30;;;;;;;;;;5107913;28;20048;-79
2022/03/31 08:25:11;;;;;;;6.50;3.17;;;;;;;;;;5107005;28;20087;-78
2022/03/31 08:27:38;;;;;;;7.45;3.35;;;;;;;;;;5105749;28;20060;-78
2022/03/31 08:30:07;;;;;;;8.50;3.53;;;;;;;;;;5104312;27;20105;-78
2022/03/31 08:32:39;;;;;;;6.72;3.13;;;;;;;;;;5087566;28;20094;-78
2022/03/31 08:35:07;;;;;;;6.90;3.55;;;;;;;;;;5092613;28;20055;-78
2022/03/31 08:37:33;;;;;;;6.88;3.63;;;;;;;;;;5089359;28;20143;-78
2022/03/31 08:40:00;;;;;;;6.90;3.28;;;;;;;;;;5101054;28;20106;-78
2022/03/31 08:42:26;;;;;;;6.40;3.70;;;;;;;;;;5084172;28;20061;-77
2022/03/31 08:44:56;;;;;;;8.05;3.78;;;;;;;;;;5069832;28;20057;-78
2022/03/31 08:47:26;;;;;;;6.22;3.65;;;;;;;;;;5094748;28;20048;-78
2022/03/31 08:50:13;;;;;;;8.77;3.92;;;;;;;;;;5108091;28;20139;-78
2022/03/31 08:52:40;;;;;;;9.15;3.95;;;;;;;;;;5088223;28;20056;-77
2022/03/31 08:55:08;;;;;;;7.93;4.00;;;;;;;;;;5108464;28;20052;-77
2022/03/31 08:57:38;;;;;;;7.80;4.47;;;;;;;;;;5091047;28;20919;-78
2022/03/31 09:00:04;;;;;;;7.60;4.38;;;;;;;;;;5108539;27;20118;-77
2022/03/31 09:02:36;;;;;;;8.90;3.88;;;;;;;;;;5087404;27;20047;-78
2022/03/31 09:05:04;;;;;;;9.07;4.07;;;;;;;;;;5109004;27;20067;-77
2022/03/31 09:07:30;;;;;;;9.27;4.32;;;;;;;;;;5113402;27;20052;-78
2022/03/31 09:09:57;;;;;;;12.10;5.10;;;;;;;;;;5110117;27;20056;-78
2022/03/31 09:12:26;;;;;;;8.40;4.55;;;;;;;;;;5106760;27;20044;-77
2022/03/31 09:15:14;;;;;;;11.57;4.15;;;;;;;;;;5093124;28;20055;-78
2022/03/31 09:17:41;;;;;;;8.80;4.88;;;;;;;;;;5109529;28;20048;-78
2022/03/31 09:20:07;;;;;;;9.27;4.60;;;;;;;;;;5090964;28;20088;-77
2022/03/31 09:22:48;;;;;;;9.52;4.72;;;;;;;;;;5091198;28;20086;-78
2022/03/31 09:25:25;;;;;;;9.18;4.93;;;;;;;;;;5111915;28;20110;-78
2022/03/31 09:27:52;;;;;;;10.57;5.20;;;;;;;;;;5096766;28;20048;-78
2022/03/31 09:30:19;;;;;;;9.55;4.65;;;;;;;;;;5093846;27;20048;-77
2022/03/31 09:32:49;;;;;;;9.95;5.22;;;;;;;;;;5107458;28;20055;-78
2022/03/31 09:35:20;;;;;;;10.52;5.32;;;;;;;;;;5114489;27;20048;-78
2022/03/31 09:37:49;;;;;;;9.60;4.75;;;;;;;;;;5111051;27;20514;-78
2022/03/31 09:40:16;;;;;;;9.27;5.13;;;;;;;;;;5092305;28;20053;-78
2022/03/31 09:42:54;;;;;;;9.18;4.45;;;;;;;;;;5103015;28;20048;-77
2022/03/31 09:45:20;;;;;;;11.00;5.82;;;;;;;;;;5102254;27;20101;-78
2022/03/31 09:47:51;;;;;;;11.32;6.00;;;;;;;;;;5112339;28;20081;-77
2022/03/31 09:50:20;;;;;;;10.80;6.00;;;;;;;;;;5108794;27;20921;-78
2022/03/31 09:52:47;;;;;;;11.27;5.60;;;;;;;;;;5088863;28;20102;-77
2022/03/31 09:55:15;;;;;;;9.65;5.03;;;;;;;;;;5088618;28;20113;-78
2022/03/31 09:57:42;;;;;;;10.57;5.88;;;;;;;;;;5106120;28;20036;-77
2022/03/31 10:00:08;;;;;;;10.00;5.57;;;;;;;;;;5110393;28;20506;-78
2022/03/31 10:02:35;;;;;;;15.18;5.80;;;;;;;;;;5092032;28;20056;-78
2022/03/31 10:05:03;;;;;;;10.73;5.90;;;;;;;;;;5094021;28;20052;-78
2022/03/31 10:07:30;;;;;;;12.88;6.60;;;;;;;;;;5096041;28;20056;-80
2022/03/31 10:09:57;;;;;;;11.25;6.00;;;;;;;;;;5098616;28;20056;-78
2022/03/31 10:12:27;;;;;;;12.23;6.05;;;;;;;;;;5116040;27;20067;-78
2022/03/31 10:14:59;;;;;;;12.52;6.50;;;;;;;;;;5121099;28;20048;-79
2022/03/31 10:17:27;;;;;;;12.13;7.18;;;;;;;;;;5095232;28;20060;-79
2022/03/31 10:19:54;;;;;;;11.52;6.47;;;;;;;;;;5119501;28;20036;-81
2022/03/31 10:25:11;;;;;;;10.13;5.85;;;;;;;;;;5121383;28;20044;-80
2022/03/31 10:27:45;;;;;;;11.15;5.90;;;;;;;;;;5107364;28;20052;-79
2022/03/31 10:30:20;;;;;;;10.00;5.55;;;;;;;;;;5108445;28;20044;-80
2022/03/31 10:32:49;;;;;;;8.60;5.07;;;;;;;;;;5122115;28;20097;-78
2022/03/31 10:35:22;;;;;;;10.10;5.40;;;;;;;;;;5110467;28;20052;-80
2022/03/31 10:37:48;;;;;;;9.13;5.00;;;;;;;;;;5101922;28;20053;-80
2022/03/31 10:40:26;;;;;;;8.40;4.72;;;;;;;;;;5093618;28;20039;-81
2022/03/31 10:42:55;;;;;;;7.72;4.40;;;;;;;;;;5103861;28;20056;-80
2022/03/31 10:45:32;;;;;;;7.05;3.95;;;;;;;;;;5119297;28;20689;-82
2022/03/31 10:47:59;;;;;;;5.90;3.63;;;;;;;;;;5098029;28;20044;-80
2022/03/31 10:50:28;;;;;;;6.07;3.50;;;;;;;;;;5103913;28;20056;-81
2022/03/31 10:53:01;;;;;;;7.30;4.35;;;;;;;;;;5096022;28;20048;-82
2022/03/31 10:55:40;;;;;;;7.22;4.50;;;;;;;;;;5097794;28;20048;-82
2022/03/31 10:58:18;;;;;;;7.55;4.43;;;;;;;;;;5109588;28;20107;-81
2022/03/31 11:00:44;;;;;;;7.55;4.70;;;;;;;;;;5098955;28;20056;-81
2022/03/31 11:03:15;;;;;;;6.82;4.18;;;;;;;;;;5106535;27;20102;-81
2022/03/31 11:05:44;;;;;;;6.22;3.80;;;;;;;;;;5094514;28;20048;-82
2022/03/31 11:08:16;;;;;;;6.55;4.15;;;;;;;;;;5112490;28;20078;-82
2022/03/31 11:10:43;;;;;;;7.72;3.95;;;;;;;;;;5093637;28;20056;-81
2022/03/31 11:13:09;;;;;;;6.20;3.78;;;;;;;;;;5112772;27;20120;-82
2022/03/31 11:15:37;;;;;;;5.82;3.28;;;;;;;;;;5127930;27;20144;-82
2022/03/31 11:18:03;;;;;;;6.70;3.47;;;;;;;;;;5103086;28;21191;-81
2022/03/31 11:20:30;;;;;;;5.72;3.28;;;;;;;;;;5090642;27;20118;-82
2022/03/31 11:22:59;;;;;;;5.28;3.20;;;;;;;;;;5111658;28;20592;-83
2022/03/31 11:25:26;;;;;;;5.43;3.10;;;;;;;;;;5113754;28;20471;-82
2022/03/31 11:27:58;;;;;;;5.45;3.17;;;;;;;;;;5097191;28;20056;-82
2022/03/31 11:30:25;;;;;;;5.47;3.30;;;;;;;;;;5097643;28;20060;-81
2022/03/31 11:32:54;;;;;;;5.90;3.50;;;;;;;;;;5099895;28;20245;-82
2022/03/31 11:35:21;;;;;;;5.75;3.28;;;;;;;;;;5097918;28;20060;-81
2022/03/31 11:37:50;;;;;;;4.53;2.90;;;;;;;;;;5113851;28;20090;-82
2022/03/31 11:40:29;;;;;;;5.10;2.70;;;;;;;;;;5097972;28;20044;-80
2022/03/31 11:42:56;;;;;;;5.43;3.38;;;;;;;;;;5098665;28;20056;-81
2022/03/31 11:45:27;;;;;;;5.18;3.10;;;;;;;;;;5116719;28;20048;-81
2022/03/31 11:47:55;;;;;;;4.30;2.50;;;;;;;;;;5110008;28;20044;-81
2022/03/31 11:50:23;;;;;;;5.68;2.80;;;;;;;;;;5098315;28;20078;-81
2022/03/31 11:52:50;;;;;;;5.10;3.00;;;;;;;;;;5115885;27;20579;-81
2022/03/31 11:55:16;;;;;;;4.32;2.50;;;;;;;;;;5097493;28;20714;-81
2022/03/31 11:57:53;;;;;;;5.10;3.28;;;;;;;;;;5099625;28;20036;-80
2022/03/31 12:00:22;;;;;;;4.47;2.67;;;;;;;;;;5115017;27;20137;-81
2022/03/31 12:03:18;;;;;;;4.20;2.58;;;;;;;;;;5115351;28;20052;-81
2022/03/31 12:05:56;;;;;;;4.57;2.65;;;;;;;;;;5089872;27;20889;-81
2022/03/31 12:08:23;;;;;;;4.20;2.55;;;;;;;;;;5097002;27;20097;-82
2022/03/31 12:10:51;;;;;;;3.97;2.20;;;;;;;;;;5098015;27;20048;-81
2022/03/31 12:13:18;;;;;;;4.47;2.38;;;;;;;;;;5115229;27;20883;-81
2022/03/31 12:15:45;;;;;;;4.15;2.40;;;;;;;;;;5096754;28;20109;-80
2022/03/31 12:18:12;;;;;;;4.68;2.60;;;;;;;;;;5116322;28;20045;-80
2022/03/31 12:20:39;;;;;;;3.85;2.10;;;;;;;;;;5126506;27;20086;-80
2022/03/31 12:23:16;;;;;;;3.95;2.35;;;;;;;;;;5107417;27;20079;-80
2022/03/31 12:25:42;;;;;;;3.78;1.90;;;;;;;;;;5100252;28;20052;-80
2022/03/31 12:28:09;;;;;;;3.60;1.80;;;;;;;;;;5098017;28;20056;-81
2022/03/31 12:30:39;;;;;;;4.07;2.00;;;;;;;;;;5106474;28;20055;-81
2022/03/31 12:33:15;;;;;;;4.78;2.45;;;;;;;;;;5105036;27;20068;-81
2022/03/31 12:35:41;;;;;;;4.15;2.20;;;;;;;;;;5110068;28;20048;-80
2022/03/31 12:38:09;;;;;;;3.60;1.90;;;;;;;;;;5118330;27;20072;-81
2022/03/31 12:40:35;;;;;;;3.33;1.77;;;;;;;;;;5099573;28;20109;-80
2022/03/31 12:43:02;;;;;;;4.72;1.70;;;;;;;;;;5100610;28;20049;-81
2022/03/31 12:45:28;;;;;;;3.65;1.90;;;;;;;;;;5117650;27;20114;-80
2022/03/31 12:47:55;;;;;;;3.50;1.90;;;;;;;;;;5122031;27;20062;-80
2022/03/31 12:50:26;;;;;;;3.35;1.83;;;;;;;;;;5103044;28;20055;-81
2022/03/31 12:53:01;;;;;;;3.35;1.70;;;;;;;;;;5101873;28;20044;-80
2022/03/31 12:55:32;;;;;;;3.50;1.80;;;;;;;;;;5102080;28;20048;-80
2022/03/31 12:58:02;;;;;;;4.03;1.90;;;;;;;;;;5103064;28;20502;-80
2022/03/31 13:00:31;;;;;;;3.38;1.83;;;;;;;;;;5103351;28;20098;-81
2022/03/31 13:03:03;;;;;;;3.40;1.98;;;;;;;;;;5098911;28;20056;-80
2022/03/31 13:05:30;;;;;;;3.80;1.70;;;;;;;;;;5113614;28;20051;-82
2022/03/31 13:07:56;;;;;;;3.33;1.80;;;;;;;;;;5110854;28;20117;-81
2022/03/31 13:10:25;;;;;;;3.50;1.67;;;;;;;;;;5119146;28;20056;-79
2022/03/31 13:12:51;;;;;;;3.75;1.85;;;;;;;;;;5096263;27;20048;-80
2022/03/31 13:15:18;;;;;;;3.58;1.80;;;;;;;;;;5107249;27;20052;-81
2022/03/31 13:17:45;;;;;;;3.40;1.67;;;;;;;;;;5103450;28;20048;-81
2022/03/31 13:20:19;;;;;;;4.45;1.90;;;;;;;;;;5121518;28;20131;-80
2022/03/31 13:22:46;;;;;;;3.88;2.15;;;;;;;;;;5100441;28;20052;-80
2022/03/31 13:25:13;;;;;;;4.13;2.00;;;;;;;;;;5103265;28;20036;-81
2022/03/31 13:27:39;;;;;;;3.63;1.77;;;;;;;;;;5102843;27;20055;-81
2022/03/31 13:30:08;;;;;;;3.97;1.73;;;;;;;;;;5120211;28;20197;-80
2022/03/31 13:32:39;;;;;;;4.68;1.92;;;;;;;;;;5101995;28;20518;-81
2022/03/31 13:35:06;;;;;;;3.30;1.70;;;;;;;;;;5106156;28;20059;-81
2022/03/31 13:37:34;;;;;;;3.95;1.90;;;;;;;;;;5103316;28;20112;-81
2022/03/31 13:40:06;;;;;;;3.63;1.70;;;;;;;;;;5083847;28;20087;-81
2022/03/31 13:42:35;;;;;;;3.45;1.70;;;;;;;;;;5102579;28;20103;-81
2022/03/31 13:45:02;;;;;;;3.47;1.70;;;;;;;;;;5102167;28;20056;-81
2022/03/31 13:47:29;;;;;;;3.35;1.50;;;;;;;;;;5102268;28;20582;-80
2022/03/31 13:49:55;;;;;;;3.60;1.70;;;;;;;;;;5101471;28;20048;-81
2022/03/31 13:52:22;;;;;;;3.33;1.50;;;;;;;;;;5101094;28;20850;-80
2022/03/31 13:54:48;;;;;;;3.10;1.40;;;;;;;;;;5101960;28;20106;-81
2022/03/31 14:02:46;;;;;;;4.38;1.60;;;;;;;;;;5111116;28;20056;-81
2022/03/31 14:05:13;;;;;;;3.67;1.83;;;;;;;;;;5100340;28;20060;-81
2022/03/31 14:07:41;;;;;;;3.63;1.60;;;;;;;;;;5121521;28;20067;-80
2022/03/31 14:10:08;;;;;;;4.20;1.90;;;;;;;;;;5120270;28;20146;-80
2022/03/31 14:12:34;;;;;;;3.92;1.77;;;;;;;;;;5106094;28;20036;-81
2022/03/31 14:15:00;;;;;;;5.13;2.17;;;;;;;;;;5100948;28;20045;-82
2022/03/31 14:17:27;;;;;;;4.68;2.20;;;;;;;;;;5098759;28;20070;-81
2022/03/31 14:19:53;;;;;;;3.90;1.95;;;;;;;;;;5115620;27;20093;-80
2022/03/31 14:22:20;;;;;;;4.47;2.15;;;;;;;;;;5103517;28;20044;-81
2022/03/31 14:24:46;;;;;;;4.22;2.35;;;;;;;;;;5102545;28;20044;-81
2022/03/31 14:27:13;;;;;;;5.00;2.40;;;;;;;;;;5109912;28;20773;-81
2022/03/31 14:29:42;;;;;;;4.28;2.10;;;;;;;;;;5097839;28;20059;-82
2022/03/31 14:32:09;;;;;;;4.55;2.20;;;;;;;;;;5118732;27;20051;-81
2022/03/31 14:34:35;;;;;;;3.83;2.00;;;;;;;;;;5100323;28;20067;-82
2022/03/31 14:37:02;;;;;;;4.13;1.90;;;;;;;;;;5103836;28;20052;-82
2022/03/31 14:39:28;;;;;;;4.43;2.00;;;;;;;;;;5103494;28;20039;-81
2022/03/31 14:41:55;;;;;;;3.85;2.08;;;;;;;;;;5121095;28;20067;-81
2022/03/31 14:44:24;;;;;;;4.35;2.22;;;;;;;;;;5121476;28;20058;-81
2022/03/31 14:46:52;;;;;;;4.40;2.17;;;;;;;;;;5119299;28;20036;-82
2022/03/31 14:49:18;;;;;;;4.35;2.28;;;;;;;;;;5103924;28;20101;-81
2022/03/31 14:51:46;;;;;;;3.63;1.80;;;;;;;;;;5101730;28;20044;-81
2022/03/31 14:54:14;;;;;;;3.70;1.75;;;;;;;;;;5119551;28;20052;-81
2022/03/31 14:56:41;;;;;;;4.10;1.70;;;;;;;;;;5103045;28;20052;-81